Troy, AL

7:33 AM CDT on September 03, 2015 (GMT -0500)
APRSWXNET | | Change Station
CLOSE
Current Station
Personal Weather Station
Location: Troy, AL
Elevation: 528 ft
Nearby Weather Stations

Elev 528 ft 31.80 °N, 85.95 °W | Updated 33 minutes ago

Mostly Cloudy
Mostly Cloudy
75 °F
Feels Like 75 °F
N
1
Wind Variable Wind from NW
Gusts 2.0 mph

Today
High -- | Low -- °F
--% Chance of Precip.
Yesterday
High -- | Low -- °F
Precip. -- in
6:20 AM 7:05 PM
Waning Gibbous, 70% visible
Pressure 30.00 in
Visibility 6.0 miles
Clouds Few 9000 ft
Few 12000 ft
Heat Index 75 °F
Dew Point 71 °F
Humidity 87%
Rainfall in
Snow Depth Not available.
UV 0 out of 12
Pollen 8.40 out of 12
Air Quality Not available.
Flu Activity Not available.
METAR KTOI 031153Z AUTO 00000KT 6SM BR FEW090 FEW120 23/22 A3001 RMK AO2 SLP157 T02330222 10244 20228 53012
Pressure 30.00 in
Visibility 6.0 miles
Clouds Few 9000 ft
Few 12000 ft
Heat Index 75 °F
Dew Point 71 °F
Humidity 87%
Rainfall in
Snow Depth Not available.
UV 0 out of 12
Pollen 8.40 out of 12
Air Quality Not available.
Flu Activity Not available.
METAR KTOI 031153Z AUTO 00000KT 6SM BR FEW090 FEW120 23/22 A3001 RMK AO2 SLP157 T02330222 10244 20228 53012

10-Day Weather Forecast

×

Almanac

Astronomy

Sep. 03, 2015 Rise Set
Actual Time
Civil Twilight
Nautical Twilight
Astronomical Twilight
Moon
Length of Visible Light
Length of Day
Tomorrow will be .
, % of the Moon is Illuminated

Today's Extremes

State Highs State Lows

Community

WunderPhotos

Upload Photos

1,851,946 photos uploaded!

WunderBlogs® & News

Nearby

Air Quality

  Air Quality AQ Index Pollutant
Not available.

Snow Depth

Station Depth Elevation

Earthquake Activity

City Distance Mag. Time & Date
Minimum magnitude displayed is 2.5.

Coastal Water Temperatures

Place Temperature

Stations

Nearby Weather Stations

Station Location Temp. Windchill Dew Point Humidity Wind Precip. Elev Updated Type